Portada
METAR-TAF:

METAR-TAF

Aeroports :

Illes Cocos, Austràlia

latitud: 12-11S, longitud: 096-49E, altitud: 3 m

Observació

L'informe es va fer fa 23 minuts, a les 08:30 UTC
Vent 18 kt del Sud-Est
Temperatura 27°C
Humitat 79%
Pressió 1012 hPa
Visibilitat 10 km o més
Escasses núvols a una alçada de 1900 ft

METAR: YPCC 230830Z 13018KT 9999 FEW019 27/23 Q1012

Hora: 15:23 (08:53 UTC)

Pronòstic

L'informe es va fer fa 4 hores i 18 minuts, a les 04:35 UTC
Pronòstic vàlid del 23 a les 06 UTC al 24 a les 06 UTC
Vent 19 kt del Sud-Est
Visibilitat 10 km o més
Núvols disperses a una alçada de 2500 ft

TAF: YPCC 230435Z 2306/2406 13019KT 9999 SCT025

Observacions i pronòstics meteorològics de més de 4000 aeroports (METAR i TAF).

Les estacions disponibles són els punts grocs i vermells al mapa.

Posi el ratolí al punt desitjat per veure el nom de l'estació.

Feu clic per veure les observacions i els pronòstics meteorològics.

Per canviar el mapa: feu clic els botons verds amb una creu de color negre per apropar; al botó verd amb un guió per allunyar la imatge; o en les fletxes verdes per a mapes adjacents.


METAR-TAF: